Time;durP1;ratioP1;P1;durP2;ratioP2;P2;SDS_P1;SDS_P2;PMS_P1;PMS_P2;Temp;Humidity;BMP_temperature;BMP_pressure;BME280_temperature;BME280_humidity;BME280_pressure;Samples;Min_cycle;Max_cycle;Signal;HPM_P1;HPM_P2
2023/07/17 00:01:35;;;;;;;4.63;4.23;;;20.10;99.90;;;;;;5071491;28;20200;-69
2023/07/17 00:04:00;;;;;;;5.00;4.50;;;20.20;99.90;;;;;;5073005;28;20189;-69
2023/07/17 00:06:26;;;;;;;5.23;4.80;;;20.30;99.90;;;;;;5073933;28;20181;-69
2023/07/17 00:08:51;;;;;;;4.83;4.20;;;20.20;99.90;;;;;;5063841;28;20173;-69
2023/07/17 00:11:17;;;;;;;9.03;4.20;;;20.10;99.90;;;;;;5071058;28;20705;-69
2023/07/17 00:13:42;;;;;;;5.87;4.10;;;20.00;99.90;;;;;;5072302;28;20260;-69
2023/07/17 00:16:08;;;;;;;8.33;4.30;;;20.00;99.90;;;;;;5071441;28;20263;-69
2023/07/17 00:18:34;;;;;;;6.93;3.40;;;20.00;99.90;;;;;;5072454;28;20215;-69
2023/07/17 00:21:04;;;;;;;3.67;3.37;;;20.00;99.90;;;;;;5070745;28;20288;-69
2023/07/17 00:23:29;;;;;;;4.77;3.50;;;20.10;99.90;;;;;;5071655;28;20415;-69
2023/07/17 00:25:55;;;;;;;4.57;4.13;;;20.10;99.90;;;;;;5072822;28;20500;-69
2023/07/17 00:28:20;;;;;;;9.17;4.17;;;20.10;99.90;;;;;;5071564;28;20523;-69
2023/07/17 00:30:46;;;;;;;6.77;3.93;;;20.10;99.90;;;;;;5072094;28;20209;-69
2023/07/17 00:33:12;;;;;;;6.73;3.50;;;20.00;99.90;;;;;;5071461;28;20234;-69
2023/07/17 00:35:37;;;;;;;7.70;4.00;;;20.00;99.90;;;;;;5072913;28;20438;-69
2023/07/17 00:38:04;;;;;;;5.50;4.07;;;20.10;99.90;;;;;;5073054;28;20265;-70
2023/07/17 00:40:29;;;;;;;5.47;4.37;;;20.00;99.90;;;;;;5070702;28;20218;-69
2023/07/17 00:42:58;;;;;;;6.30;4.10;;;20.00;99.90;;;;;;5069989;28;20427;-69
2023/07/17 00:45:25;;;;;;;4.30;3.90;;;19.80;99.90;;;;;;5075623;28;20218;-69
2023/07/17 00:47:51;;;;;;;7.17;3.90;;;19.80;99.90;;;;;;5078548;28;20431;-69
2023/07/17 00:50:16;;;;;;;4.00;3.57;;;19.80;99.90;;;;;;5071164;28;20457;-69
2023/07/17 00:52:42;;;;;;;5.07;3.63;;;19.80;99.90;;;;;;5068361;28;20173;-70
2023/07/17 00:55:08;;;;;;;4.30;3.70;;;19.80;99.90;;;;;;5071529;28;20252;-70
2023/07/17 00:57:35;;;;;;;4.33;3.93;;;19.90;99.90;;;;;;5071555;28;20211;-70
2023/07/17 01:00:02;;;;;;;6.60;3.93;;;19.90;99.90;;;;;;5071605;28;20519;-70
2023/07/17 01:02:27;;;;;;;4.80;3.90;;;19.90;99.90;;;;;;5068644;28;20431;-70
2023/07/17 01:04:53;;;;;;;4.20;3.63;;;20.00;99.90;;;;;;5071097;28;20434;-69
2023/07/17 01:07:18;;;;;;;4.20;3.33;;;20.00;99.90;;;;;;5073188;28;20557;-69
2023/07/17 01:09:44;;;;;;;3.83;3.53;;;20.10;99.90;;;;;;5079544;28;20200;-69
2023/07/17 01:12:09;;;;;;;4.90;2.60;;;20.10;99.90;;;;;;5071935;28;20181;-70
2023/07/17 01:14:35;;;;;;;6.03;4.13;;;20.30;99.90;;;;;;5070830;28;20222;-69
2023/07/17 01:17:00;;;;;;;5.37;4.00;;;20.40;99.90;;;;;;5071723;28;20622;-70
2023/07/17 01:19:26;;;;;;;4.50;4.13;;;20.40;99.90;;;;;;5071526;28;20183;-70
2023/07/17 01:22:00;;;;;;;5.33;3.90;;;20.40;99.90;;;;;;5068951;28;20705;-70
2023/07/17 01:24:26;;;;;;;4.47;4.07;;;20.30;99.90;;;;;;5069163;28;20164;-70
2023/07/17 01:26:51;;;;;;;3.87;3.47;;;20.30;99.90;;;;;;5047491;28;20435;-70
2023/07/17 01:29:17;;;;;;;4.33;3.87;;;20.30;99.90;;;;;;5072909;28;20594;-70
2023/07/17 01:31:43;;;;;;;4.53;3.90;;;20.30;99.90;;;;;;5070394;28;20576;-70
2023/07/17 01:34:09;;;;;;;3.80;3.43;;;20.30;99.90;;;;;;5071611;28;20177;-70
2023/07/17 01:36:35;;;;;;;5.97;4.13;;;20.30;99.90;;;;;;5071884;28;20287;-70
2023/07/17 01:39:01;;;;;;;4.97;3.80;;;20.20;99.90;;;;;;5074527;28;20983;-70
2023/07/17 01:41:27;;;;;;;4.53;3.60;;;20.30;99.90;;;;;;5069232;28;20622;-70
2023/07/17 01:43:52;;;;;;;6.20;3.90;;;20.20;99.90;;;;;;5069908;28;20438;-70
2023/07/17 01:46:18;;;;;;;5.97;4.40;;;20.10;99.90;;;;;;5084305;28;20177;-70
2023/07/17 01:48:44;;;;;;;4.40;4.00;;;20.00;99.90;;;;;;5072470;28;20218;-70
2023/07/17 01:51:10;;;;;;;4.43;4.13;;;20.10;99.90;;;;;;5067616;28;20210;-70
2023/07/17 01:53:36;;;;;;;5.40;4.90;;;20.00;99.90;;;;;;5070074;28;20446;-70
2023/07/17 01:56:02;;;;;;;7.23;4.60;;;20.00;99.90;;;;;;5070398;28;20180;-70
2023/07/17 01:58:27;;;;;;;5.23;3.70;;;20.00;99.90;;;;;;5069969;28;20431;-70
2023/07/17 02:00:56;;;;;;;6.23;3.80;;;19.90;99.90;;;;;;5069341;28;20808;-70
2023/07/17 02:03:22;;;;;;;5.60;4.37;;;19.80;99.90;;;;;;5067779;28;20181;-70
2023/07/17 02:05:50;;;;;;;4.97;4.10;;;19.80;99.90;;;;;;5066851;28;20488;-70
2023/07/17 02:08:15;;;;;;;9.63;4.40;;;19.80;99.90;;;;;;5070244;28;20522;-70
2023/07/17 02:10:47;;;;;;;6.67;5.40;;;19.80;99.90;;;;;;5070496;28;20584;-70
2023/07/17 02:13:12;;;;;;;5.53;4.20;;;19.80;99.90;;;;;;5068495;28;20590;-70
2023/07/17 02:15:38;;;;;;;5.30;4.30;;;19.80;99.90;;;;;;5068683;28;20489;-70
2023/07/17 02:18:03;;;;;;;8.17;3.90;;;19.70;99.90;;;;;;5068931;28;20201;-70
2023/07/17 02:20:29;;;;;;;4.90;4.00;;;19.60;99.90;;;;;;5069487;28;20304;-70
2023/07/17 02:22:54;;;;;;;5.20;4.80;;;19.50;99.90;;;;;;5069312;28;20184;-70
2023/07/17 02:25:20;;;;;;;8.67;4.23;;;19.50;99.90;;;;;;5068834;28;20177;-70
2023/07/17 02:27:45;;;;;;;10.43;4.40;;;19.50;99.90;;;;;;5070202;28;20183;-70
2023/07/17 02:30:11;;;;;;;4.97;4.17;;;19.50;99.90;;;;;;5077883;28;20303;-70
2023/07/17 02:32:37;;;;;;;4.83;4.43;;;19.60;99.90;;;;;;5067418;28;20534;-70
2023/07/17 02:35:03;;;;;;;5.00;3.80;;;19.60;99.90;;;;;;5069926;28;20172;-70
2023/07/17 02:37:29;;;;;;;6.50;4.37;;;19.60;99.90;;;;;;5069083;28;20208;-69
2023/07/17 02:39:55;;;;;;;5.37;4.30;;;19.50;99.90;;;;;;5069619;28;20602;-70
2023/07/17 02:42:20;;;;;;;4.20;3.80;;;19.60;99.90;;;;;;5070075;28;20192;-70
2023/07/17 02:44:46;;;;;;;6.30;4.03;;;19.60;99.90;;;;;;5045420;28;20199;-70
2023/07/17 02:47:12;;;;;;;5.27;3.60;;;19.60;99.90;;;;;;5069896;28;20550;-70
2023/07/17 02:49:38;;;;;;;4.20;3.80;;;19.70;99.90;;;;;;5069912;28;20447;-70
2023/07/17 02:52:05;;;;;;;4.20;3.90;;;19.70;99.90;;;;;;5068686;28;20325;-70
2023/07/17 02:54:30;;;;;;;6.27;4.63;;;19.70;99.90;;;;;;5069598;28;20438;-70
2023/07/17 02:56:56;;;;;;;3.83;3.53;;;19.60;99.90;;;;;;5071219;28;21043;-70
2023/07/17 02:59:22;;;;;;;6.30;3.80;;;19.50;99.90;;;;;;5067898;28;20181;-70
2023/07/17 03:01:48;;;;;;;8.23;4.40;;;19.50;99.90;;;;;;5066987;28;20200;-70
2023/07/17 03:04:13;;;;;;;5.20;4.40;;;19.50;99.90;;;;;;5068833;28;20431;-69
2023/07/17 03:06:39;;;;;;;4.37;3.97;;;19.50;99.90;;;;;;5068733;28;20180;-69
2023/07/17 03:09:04;;;;;;;11.17;4.30;;;19.40;99.90;;;;;;5069981;28;20268;-70
2023/07/17 03:11:30;;;;;;;6.70;3.70;;;19.30;99.90;;;;;;5073178;28;20219;-70
2023/07/17 03:13:55;;;;;;;5.33;4.20;;;19.30;99.90;;;;;;5067967;28;20169;-69
2023/07/17 03:16:21;;;;;;;7.10;4.33;;;19.20;99.90;;;;;;5069445;28;20210;-69
2023/07/17 03:18:46;;;;;;;5.00;4.07;;;19.10;99.90;;;;;;5069180;28;20172;-70
2023/07/17 03:21:12;;;;;;;4.63;3.80;;;19.10;99.90;;;;;;5068814;28;20201;-70
2023/07/17 03:23:37;;;;;;;5.13;4.03;;;19.00;99.90;;;;;;5067260;28;20229;-69
2023/07/17 03:26:03;;;;;;;4.30;3.57;;;19.00;99.90;;;;;;5067773;28;20712;-69
2023/07/17 03:28:28;;;;;;;4.63;4.17;;;19.00;99.90;;;;;;5066224;28;20196;-70
2023/07/17 03:30:56;;;;;;;5.30;4.80;;;19.00;99.90;;;;;;5065937;28;20553;-70
2023/07/17 03:33:21;;;;;;;5.33;4.13;;;19.00;99.90;;;;;;5069215;28;20230;-70
2023/07/17 03:35:47;;;;;;;5.83;4.17;;;19.10;99.90;;;;;;5073509;28;20932;-70
2023/07/17 03:38:12;;;;;;;3.80;3.50;;;19.10;99.90;;;;;;5073093;28;20220;-70
2023/07/17 03:40:38;;;;;;;4.73;3.53;;;19.10;99.90;;;;;;5069714;28;20228;-70
2023/07/17 03:43:03;;;;;;;5.30;3.73;;;19.10;99.90;;;;;;5068598;28;20601;-70
2023/07/17 03:45:29;;;;;;;4.83;4.10;;;19.10;99.90;;;;;;5073682;28;20259;-70
2023/07/17 03:47:54;;;;;;;4.20;3.80;;;19.00;99.90;;;;;;5070742;28;20268;-70
2023/07/17 03:50:20;;;;;;;4.40;4.00;;;19.00;99.90;;;;;;5070915;28;20212;-70
2023/07/17 03:52:45;;;;;;;8.23;4.70;;;19.10;99.90;;;;;;5071100;28;20204;-70
2023/07/17 03:55:11;;;;;;;4.70;3.57;;;19.00;99.90;;;;;;5070797;28;20697;-70
2023/07/17 03:57:36;;;;;;;5.67;4.70;;;19.00;99.90;;;;;;5071477;28;20212;-70
2023/07/17 04:00:02;;;;;;;6.13;5.53;;;19.00;99.90;;;;;;5072128;28;20356;-70
2023/07/17 04:02:28;;;;;;;5.00;4.50;;;19.10;99.90;;;;;;5073140;28;20260;-72
2023/07/17 04:04:53;;;;;;;4.33;3.80;;;18.90;99.90;;;;;;5071657;28;20184;-70
2023/07/17 04:07:19;;;;;;;6.30;3.93;;;18.80;99.90;;;;;;5069966;28;20185;-70
2023/07/17 04:09:45;;;;;;;5.57;4.07;;;18.80;99.90;;;;;;5070707;28;20632;-70
2023/07/17 04:12:11;;;;;;;5.40;4.90;;;18.70;99.90;;;;;;5071122;28;20550;-70
2023/07/17 04:14:37;;;;;;;3.97;3.67;;;18.60;99.90;;;;;;5070522;28;20327;-70
2023/07/17 04:17:03;;;;;;;9.67;7.43;;;18.60;99.90;;;;;;5072473;28;20616;-70
2023/07/17 04:19:30;;;;;;;8.40;6.40;;;18.60;99.90;;;;;;5070991;28;20268;-70
2023/07/17 04:21:55;;;;;;;4.67;4.00;;;18.50;99.90;;;;;;5069807;28;20461;-70
2023/07/17 04:24:23;;;;;;;7.27;5.40;;;18.60;99.90;;;;;;5072574;28;20438;-70
2023/07/17 04:26:50;;;;;;;5.07;4.57;;;18.60;99.90;;;;;;5069076;28;20643;-70
2023/07/17 04:29:16;;;;;;;9.80;4.90;;;18.80;99.90;;;;;;5071509;28;20439;-70
2023/07/17 04:31:42;;;;;;;5.70;4.13;;;18.90;99.90;;;;;;5069105;28;20978;-70
2023/07/17 04:34:07;;;;;;;7.43;4.17;;;19.10;99.90;;;;;;5071901;28;20438;-70
2023/07/17 04:36:33;;;;;;;8.80;5.57;;;19.10;99.90;;;;;;5070253;28;20674;-70
2023/07/17 04:38:58;;;;;;;5.33;4.43;;;19.20;99.90;;;;;;5066718;28;20215;-70
2023/07/17 04:41:24;;;;;;;9.73;5.50;;;19.30;99.90;;;;;;5073167;28;20205;-70
2023/07/17 04:43:49;;;;;;;5.03;3.97;;;19.40;99.90;;;;;;5080439;28;20172;-70
2023/07/17 04:46:15;;;;;;;5.60;5.10;;;19.50;99.90;;;;;;5081096;28;20200;-70
2023/07/17 04:48:40;;;;;;;5.83;4.53;;;19.70;99.90;;;;;;5077792;28;20173;-70
2023/07/17 04:51:06;;;;;;;11.40;4.17;;;19.70;99.90;;;;;;5070976;28;20192;-70
2023/07/17 04:53:32;;;;;;;5.63;4.53;;;19.70;99.90;;;;;;5083223;28;20618;-70
2023/07/17 04:55:57;;;;;;;8.00;4.27;;;19.90;99.90;;;;;;5070406;28;20181;-70
2023/07/17 04:58:25;;;;;;;6.70;4.30;;;20.10;99.90;;;;;;5069834;28;20577;-70
2023/07/17 05:00:50;;;;;;;7.83;4.67;;;20.20;99.90;;;;;;5071513;28;20216;-70
2023/07/17 05:03:16;;;;;;;5.53;4.20;;;20.30;99.90;;;;;;5070913;28;20472;-70
2023/07/17 05:05:48;;;;;;;6.00;5.23;;;20.50;99.90;;;;;;5074366;28;20255;-70
2023/07/17 05:08:14;;;;;;;6.80;5.17;;;20.80;99.90;;;;;;5072610;28;20597;-72
2023/07/17 05:10:39;;;;;;;4.87;4.43;;;21.10;99.90;;;;;;5074133;28;20606;-69
2023/07/17 05:13:05;;;;;;;4.67;4.27;;;21.30;99.90;;;;;;5071763;28;20177;-69
2023/07/17 05:15:30;;;;;;;4.67;4.27;;;21.40;99.90;;;;;;5070787;28;20188;-69
2023/07/17 05:17:56;;;;;;;4.57;4.13;;;21.50;99.90;;;;;;5068333;28;20200;-69
2023/07/17 05:20:21;;;;;;;7.73;4.40;;;21.50;99.90;;;;;;5083538;28;20229;-70
2023/07/17 05:22:47;;;;;;;5.20;4.10;;;21.50;99.90;;;;;;5073203;28;20173;-69
2023/07/17 05:25:12;;;;;;;4.17;3.77;;;21.20;99.90;;;;;;5076808;28;20176;-69
2023/07/17 05:27:38;;;;;;;5.90;4.60;;;21.10;99.90;;;;;;5081003;28;20187;-68
2023/07/17 05:30:04;;;;;;;7.03;5.17;;;20.70;99.90;;;;;;5069621;28;20192;-70
2023/07/17 05:32:30;;;;;;;4.40;3.70;;;20.30;99.90;;;;;;5065079;28;20799;-71
2023/07/17 05:34:56;;;;;;;9.10;4.93;;;20.30;99.90;;;;;;5050596;28;20447;-69
2023/07/17 05:37:21;;;;;;;4.40;4.03;;;20.20;99.90;;;;;;5072345;28;20670;-70
2023/07/17 05:39:47;;;;;;;9.80;4.63;;;20.20;99.90;;;;;;5093063;28;20432;-70
2023/07/17 05:42:12;;;;;;;4.27;3.87;;;20.40;99.90;;;;;;5076618;28;20189;-70
2023/07/17 05:44:38;;;;;;;5.43;4.67;;;20.30;99.90;;;;;;5073150;28;20584;-70
2023/07/17 05:47:05;;;;;;;5.60;4.83;;;20.30;99.90;;;;;;5073171;28;20597;-70
2023/07/17 05:49:30;;;;;;;5.10;4.60;;;20.40;99.90;;;;;;5072709;28;20187;-70
2023/07/17 05:51:56;;;;;;;5.93;4.60;;;20.30;99.90;;;;;;5070611;28;20553;-70
2023/07/17 05:54:22;;;;;;;5.60;3.70;;;20.20;99.90;;;;;;5054146;28;20263;-70
2023/07/17 05:56:47;;;;;;;4.33;4.03;;;20.20;99.90;;;;;;5072049;28;20228;-70
2023/07/17 05:59:13;;;;;;;4.93;4.43;;;20.40;99.90;;;;;;5054668;28;20427;-70
2023/07/17 06:01:38;;;;;;;6.47;3.70;;;20.60;99.90;;;;;;5072078;28;20193;-70
2023/07/17 06:04:04;;;;;;;7.30;4.63;;;20.90;99.90;;;;;;5072797;28;20165;-70
2023/07/17 06:06:29;;;;;;;7.63;4.60;;;21.10;99.90;;;;;;5072798;28;20265;-70
2023/07/17 06:08:59;;;;;;;8.60;4.53;;;21.30;99.90;;;;;;5072361;28;20231;-70
2023/07/17 06:11:25;;;;;;;7.73;4.50;;;21.50;99.90;;;;;;5071606;28;20209;-70
2023/07/17 06:13:50;;;;;;;6.63;3.63;;;21.60;99.90;;;;;;5072511;28;20450;-70
2023/07/17 06:16:16;;;;;;;5.67;4.13;;;21.70;99.90;;;;;;5054514;28;20177;-70
2023/07/17 06:18:41;;;;;;;4.50;3.10;;;21.80;99.90;;;;;;5072207;28;20175;-70
2023/07/17 06:21:07;;;;;;;5.93;5.10;;;22.00;99.90;;;;;;5071101;28;20198;-70
2023/07/17 06:23:32;;;;;;;6.13;4.07;;;22.20;99.90;;;;;;5070079;28;20255;-70
2023/07/17 06:25:58;;;;;;;6.53;4.03;;;22.40;99.90;;;;;;5065356;28;20256;-70
2023/07/17 06:28:23;;;;;;;5.03;4.23;;;22.40;99.90;;;;;;5070401;28;20180;-69
2023/07/17 06:30:49;;;;;;;4.60;4.13;;;22.50;99.90;;;;;;5069500;28;20212;-69
2023/07/17 06:33:14;;;;;;;4.50;4.10;;;22.60;99.90;;;;;;5070827;28;20173;-69
2023/07/17 06:35:40;;;;;;;4.30;3.30;;;23.00;99.90;;;;;;5074838;28;20239;-69
2023/07/17 06:38:07;;;;;;;7.70;5.20;;;23.40;99.90;;;;;;5072068;28;20192;-69
2023/07/17 06:40:34;;;;;;;7.27;4.37;;;23.50;99.90;;;;;;5071916;28;20932;-69
2023/07/17 06:42:59;;;;;;;5.13;3.20;;;23.60;99.90;;;;;;5070545;28;20485;-69
2023/07/17 06:45:25;;;;;;;6.47;4.03;;;23.80;99.90;;;;;;5065392;28;20458;-68
2023/07/17 06:47:50;;;;;;;4.50;3.73;;;23.90;99.90;;;;;;5071779;28;20561;-68
2023/07/17 06:50:16;;;;;;;4.97;4.03;;;24.20;99.90;;;;;;5069049;28;20212;-69
2023/07/17 06:52:43;;;;;;;4.60;4.20;;;24.30;99.90;;;;;;5069283;28;20188;-68
2023/07/17 06:55:09;;;;;;;6.97;4.03;;;24.30;99.90;;;;;;5071726;28;20176;-68
2023/07/17 06:57:34;;;;;;;4.50;3.77;;;24.20;99.90;;;;;;5071722;28;20458;-68
2023/07/17 07:00:00;;;;;;;4.83;4.37;;;24.20;99.90;;;;;;5071437;28;20193;-68
2023/07/17 07:02:25;;;;;;;5.73;4.30;;;24.40;99.90;;;;;;5069603;28;20180;-69
2023/07/17 07:04:51;;;;;;;5.60;4.33;;;24.60;99.90;;;;;;5070554;28;20177;-68
2023/07/17 07:07:16;;;;;;;4.57;4.17;;;24.70;99.90;;;;;;5071510;28;20220;-68
2023/07/17 07:09:42;;;;;;;6.37;5.43;;;25.00;99.50;;;;;;5071005;28;20606;-69
2023/07/17 07:12:08;;;;;;;6.93;4.43;;;24.80;98.20;;;;;;5070161;28;20189;-69
2023/07/17 07:14:33;;;;;;;5.90;4.67;;;24.70;98.70;;;;;;5070620;28;20189;-70
2023/07/17 07:16:59;;;;;;;5.23;4.50;;;24.80;96.80;;;;;;5067559;28;21042;-70
2023/07/17 07:19:24;;;;;;;6.70;4.90;;;24.90;97.70;;;;;;5051546;28;20224;-70
2023/07/17 07:21:50;;;;;;;5.23;4.73;;;25.00;95.80;;;;;;5056523;28;20192;-68
2023/07/17 07:24:15;;;;;;;9.50;5.67;;;24.90;96.30;;;;;;5071723;28;20204;-69
2023/07/17 07:26:41;;;;;;;7.27;5.57;;;25.10;96.40;;;;;;5071634;28;20203;-69
2023/07/17 07:29:06;;;;;;;7.40;5.37;;;25.40;92.60;;;;;;5071289;28;20169;-68
2023/07/17 07:31:32;;;;;;;5.80;5.10;;;25.70;92.10;;;;;;5070097;28;20636;-70
2023/07/17 07:33:57;;;;;;;6.33;5.50;;;25.90;86.20;;;;;;5071416;28;20580;-68
2023/07/17 07:36:23;;;;;;;5.50;4.90;;;26.40;85.60;;;;;;5070446;28;20180;-69
2023/07/17 07:38:49;;;;;;;7.93;4.87;;;26.50;83.60;;;;;;5071221;28;20197;-69
2023/07/17 07:41:15;;;;;;;6.40;5.43;;;26.60;85.70;;;;;;5070729;28;20552;-70
2023/07/17 07:43:40;;;;;;;6.00;5.40;;;26.70;87.60;;;;;;5071040;28;20169;-68
2023/07/17 07:46:09;;;;;;;8.47;5.63;;;26.70;84.00;;;;;;5071287;28;20169;-69
2023/07/17 07:48:34;;;;;;;7.83;5.03;;;26.70;84.00;;;;;;5071096;28;20251;-68
2023/07/17 07:51:00;;;;;;;7.00;5.63;;;26.90;82.90;;;;;;5071365;28;20463;-68
2023/07/17 07:53:25;;;;;;;8.17;6.07;;;26.40;79.70;;;;;;5066047;28;20182;-68
2023/07/17 07:55:51;;;;;;;6.53;5.70;;;26.40;81.60;;;;;;5061620;28;20585;-68
2023/07/17 07:58:16;;;;;;;8.50;6.90;;;26.50;78.40;;;;;;5070829;28;20733;-69
2023/07/17 08:00:42;;;;;;;8.80;5.10;;;26.80;76.30;;;;;;5065078;28;20215;-68
2023/07/17 08:03:07;;;;;;;7.40;5.57;;;26.90;76.00;;;;;;5067398;28;20748;-68
2023/07/17 08:05:33;;;;;;;5.20;4.70;;;27.20;76.60;;;;;;5071157;28;20180;-68
2023/07/17 08:07:58;;;;;;;8.63;5.73;;;27.00;76.00;;;;;;5071186;28;20244;-68
2023/07/17 08:10:24;;;;;;;9.30;6.33;;;27.10;73.20;;;;;;5069534;28;20209;-68
2023/07/17 08:12:49;;;;;;;6.10;5.50;;;26.90;73.00;;;;;;5063309;28;20732;-68
2023/07/17 08:15:15;;;;;;;10.23;5.57;;;26.80;69.80;;;;;;5071065;28;20208;-69
2023/07/17 08:17:40;;;;;;;6.10;5.50;;;26.90;68.80;;;;;;5070969;28;20200;-69
2023/07/17 08:20:07;;;;;;;7.20;5.43;;;27.00;68.80;;;;;;5071048;28;20200;-69
2023/07/17 08:22:32;;;;;;;6.60;5.23;;;26.90;65.80;;;;;;5073493;28;20239;-69
2023/07/17 08:24:58;;;;;;;7.00;5.13;;;27.20;65.80;;;;;;5074489;28;20937;-70
2023/07/17 08:27:23;;;;;;;5.93;5.10;;;27.30;66.50;;;;;;5074497;28;20264;-69
2023/07/17 08:29:49;;;;;;;6.13;5.53;;;27.50;64.80;;;;;;5074116;28;20566;-70
2023/07/17 08:32:14;;;;;;;6.30;5.47;;;27.90;65.60;;;;;;5071751;28;20184;-69
2023/07/17 08:34:40;;;;;;;8.00;5.90;;;27.80;63.40;;;;;;5074016;28;20242;-69
2023/07/17 08:37:05;;;;;;;5.83;5.23;;;27.40;60.10;;;;;;5074318;28;20650;-68
2023/07/17 08:39:31;;;;;;;6.87;6.10;;;27.40;61.10;;;;;;5074100;28;20172;-68
2023/07/17 08:41:56;;;;;;;5.27;4.77;;;27.80;59.20;;;;;;5073258;28;20280;-68
2023/07/17 08:44:22;;;;;;;11.13;5.67;;;28.20;58.80;;;;;;5073959;28;20165;-69
2023/07/17 08:46:50;;;;;;;8.73;6.27;;;28.00;57.60;;;;;;5074316;28;20172;-68
2023/07/17 08:49:17;;;;;;;8.00;5.83;;;28.10;57.60;;;;;;5072393;28;20834;-69
2023/07/17 08:51:44;;;;;;;5.70;5.20;;;28.20;58.40;;;;;;5072711;28;20517;-69
2023/07/17 08:54:12;;;;;;;7.00;4.87;;;28.30;57.40;;;;;;5074152;28;20426;-69
2023/07/17 08:56:40;;;;;;;5.93;5.10;;;27.90;56.80;;;;;;5073840;28;20479;-69
2023/07/17 08:59:07;;;;;;;8.50;5.50;;;27.70;57.80;;;;;;5073568;28;20920;-70
2023/07/17 09:01:33;;;;;;;6.00;5.40;;;28.00;57.10;;;;;;5073895;28;20545;-69
2023/07/17 09:03:59;;;;;;;7.53;5.63;;;28.40;56.60;;;;;;5073144;28;20972;-68
2023/07/17 09:06:27;;;;;;;7.33;5.20;;;28.90;54.50;;;;;;5073649;28;20627;-69
2023/07/17 09:08:52;;;;;;;5.67;5.20;;;29.20;54.50;;;;;;5055476;28;20494;-69
2023/07/17 09:11:19;;;;;;;5.97;4.97;;;29.40;55.00;;;;;;5073585;28;20534;-69
2023/07/17 09:13:45;;;;;;;6.93;5.57;;;30.20;53.70;;;;;;5072645;28;20180;-69
2023/07/17 09:16:15;;;;;;;6.20;5.53;;;30.10;52.70;;;;;;5073579;28;20407;-69
2023/07/17 09:18:41;;;;;;;6.83;5.53;;;29.60;52.40;;;;;;5073241;28;20427;-69
2023/07/17 09:21:07;;;;;;;6.83;5.20;;;29.20;53.20;;;;;;5073417;28;20857;-70
2023/07/17 09:23:38;;;;;;;6.10;5.60;;;29.40;52.70;;;;;;5072350;28;20427;-69
2023/07/17 09:26:04;;;;;;;8.10;4.90;;;29.70;52.00;;;;;;5073383;28;20415;-69
2023/07/17 09:28:29;;;;;;;6.23;5.53;;;30.00;51.30;;;;;;5073009;28;20749;-69
2023/07/17 09:31:01;;;;;;;5.93;5.40;;;29.40;51.10;;;;;;5073085;28;20192;-69
2023/07/17 09:33:26;;;;;;;5.83;5.17;;;28.80;52.40;;;;;;5072546;28;20250;-69
2023/07/17 09:35:58;;;;;;;5.87;5.40;;;29.00;52.30;;;;;;5073329;28;20439;-69
2023/07/17 09:38:27;;;;;;;6.87;5.60;;;29.10;51.40;;;;;;5072727;28;20615;-69
2023/07/17 09:40:52;;;;;;;7.20;6.30;;;29.10;50.80;;;;;;5073033;28;20523;-69
2023/07/17 09:43:30;;;;;;;6.17;5.50;;;29.20;52.20;;;;;;5071639;28;21033;-69
2023/07/17 09:46:00;;;;;;;6.33;5.83;;;29.20;52.30;;;;;;5072184;28;20192;-70
2023/07/17 09:48:27;;;;;;;5.97;5.37;;;29.60;52.10;;;;;;5069475;28;20880;-69
2023/07/17 09:50:57;;;;;;;7.17;6.50;;;30.10;52.30;;;;;;5071728;28;21271;-70
2023/07/17 09:53:24;;;;;;;5.80;5.40;;;29.60;51.80;;;;;;5071012;28;20488;-70
2023/07/17 09:55:51;;;;;;;8.10;5.97;;;29.40;51.60;;;;;;5070856;28;20716;-69
2023/07/17 09:58:18;;;;;;;7.37;5.20;;;28.80;52.30;;;;;;5071137;28;20462;-69
2023/07/17 10:00:48;;;;;;;5.80;5.30;;;28.60;52.00;;;;;;5071655;28;20468;-69
2023/07/17 10:03:17;;;;;;;7.00;5.60;;;28.10;51.30;;;;;;5069260;28;20521;-69
2023/07/17 10:05:43;;;;;;;6.57;6.07;;;28.30;52.50;;;;;;5071242;28;20431;-70
2023/07/17 10:08:10;;;;;;;5.47;4.97;;;28.90;51.40;;;;;;5066464;28;20447;-69
2023/07/17 10:10:37;;;;;;;6.30;5.70;;;30.30;51.00;;;;;;5067729;28;20521;-68
2023/07/17 10:13:03;;;;;;;6.70;6.00;;;30.50;49.80;;;;;;5070868;28;20424;-70
2023/07/17 10:15:29;;;;;;;6.90;5.20;;;30.10;50.00;;;;;;5071548;28;20446;-70
2023/07/17 10:17:57;;;;;;;8.43;5.67;;;29.90;49.40;;;;;;5069338;28;20459;-69
2023/07/17 10:20:23;;;;;;;8.13;5.90;;;29.80;50.00;;;;;;5065724;28;20451;-70
2023/07/17 10:22:49;;;;;;;6.37;5.87;;;29.80;49.70;;;;;;5072295;28;21049;-71
2023/07/17 10:25:17;;;;;;;5.00;4.70;;;30.10;48.70;;;;;;5072079;28;20635;-70
2023/07/17 10:28:00;;;;;;;6.17;5.57;;;30.20;48.90;;;;;;5070589;28;20407;-70
2023/07/17 10:30:30;;;;;;;5.63;5.10;;;30.60;47.90;;;;;;5062464;28;20454;-71
2023/07/17 10:33:19;;;;;;;7.70;6.97;;;30.30;47.30;;;;;;5062898;28;20432;-70
2023/07/17 10:35:49;;;;;;;6.27;5.67;;;30.40;49.40;;;;;;5054792;28;20427;-70
2023/07/17 10:38:16;;;;;;;6.93;5.80;;;31.40;48.40;;;;;;5051805;28;20462;-70
2023/07/17 10:40:42;;;;;;;5.90;5.40;;;33.20;45.40;;;;;;5068649;28;20462;-70
2023/07/17 10:43:18;;;;;;;8.23;5.47;;;34.60;43.40;;;;;;5070979;28;20415;-70
2023/07/17 10:45:45;;;;;;;5.30;4.80;;;34.50;41.50;;;;;;5069244;28;20192;-71
2023/07/17 10:48:11;;;;;;;6.27;5.13;;;35.40;41.00;;;;;;5051571;28;20424;-71
2023/07/17 10:50:39;;;;;;;5.93;5.50;;;36.10;38.80;;;;;;5063789;28;20470;-70
2023/07/17 10:53:05;;;;;;;5.60;5.10;;;36.60;38.70;;;;;;5070184;28;20446;-71
2023/07/17 10:55:32;;;;;;;6.20;5.60;;;36.50;37.60;;;;;;5071838;28;20943;-71
2023/07/17 10:57:59;;;;;;;5.30;4.80;;;37.00;37.20;;;;;;5071955;28;20815;-71
2023/07/17 11:00:25;;;;;;;7.57;5.80;;;36.50;36.30;;;;;;5069745;28;20458;-71
2023/07/17 11:02:50;;;;;;;10.00;6.10;;;36.70;36.30;;;;;;5071790;28;20502;-71
2023/07/17 11:05:16;;;;;;;6.43;5.80;;;35.80;36.10;;;;;;5071949;28;20590;-71
2023/07/17 11:07:42;;;;;;;6.97;6.20;;;36.20;35.60;;;;;;5071998;28;20699;-71
2023/07/17 11:10:12;;;;;;;6.47;5.83;;;36.40;35.60;;;;;;5074270;22;20291;-68
2023/07/17 11:12:41;;;;;;;7.17;6.67;;;36.30;35.60;;;;;;5067463;28;20927;-68
2023/07/17 11:15:17;;;;;;;6.23;5.67;;;36.30;34.90;;;;;;5056925;28;20412;-69
2023/07/17 11:17:43;;;;;;;5.87;5.33;;;35.80;34.60;;;;;;5051795;28;20471;-69
2023/07/17 11:20:10;;;;;;;5.90;4.90;;;35.20;35.80;;;;;;5054382;28;20436;-69
2023/07/17 11:22:36;;;;;;;6.00;5.43;;;34.20;37.00;;;;;;5039944;28;20423;-69
2023/07/17 11:25:03;;;;;;;5.90;5.40;;;35.20;36.40;;;;;;5034221;28;20491;-69
2023/07/17 11:27:28;;;;;;;6.83;6.23;;;34.90;36.80;;;;;;5040109;28;20412;-68
2023/07/17 11:29:54;;;;;;;6.00;5.40;;;33.80;37.20;;;;;;5031479;28;20524;-68
2023/07/17 11:32:20;;;;;;;6.80;5.30;;;33.10;38.30;;;;;;5034404;28;20193;-68
2023/07/17 11:34:53;;;;;;;6.40;5.73;;;33.70;38.30;;;;;;5042285;28;20170;-68
2023/07/17 11:37:37;;;;;;;6.53;6.03;;;33.80;38.10;;;;;;5040393;28;20452;-68
2023/07/17 11:40:08;;;;;;;8.17;6.07;;;33.80;38.30;;;;;;5040601;28;20477;-68
2023/07/17 11:42:56;;;;;;;5.83;4.90;;;35.20;36.40;;;;;;5034158;28;20416;-68
2023/07/17 11:45:26;;;;;;;6.10;5.33;;;36.10;35.50;;;;;;5032682;28;20439;-69
2023/07/17 11:47:56;;;;;;;6.33;5.70;;;37.20;34.20;;;;;;5038629;28;20424;-69
2023/07/17 11:50:26;;;;;;;6.30;5.70;;;36.90;34.30;;;;;;5031215;28;20437;-69
2023/07/17 11:53:10;;;;;;;5.93;5.40;;;37.20;33.90;;;;;;5031606;28;20451;-69
2023/07/17 11:55:38;;;;;;;6.17;5.70;;;37.90;33.20;;;;;;5034991;28;20472;-69
2023/07/17 11:58:25;;;;;;;6.30;5.50;;;37.80;32.90;;;;;;5049373;28;20604;-69
2023/07/17 12:00:53;;;;;;;6.80;6.20;;;39.20;32.40;;;;;;5055060;28;20494;-69
2023/07/17 12:03:19;;;;;;;6.53;6.10;;;39.70;31.30;;;;;;5055161;28;20487;-69
2023/07/17 12:05:46;;;;;;;5.77;5.27;;;38.90;32.30;;;;;;5043215;28;21049;-69
2023/07/17 12:08:12;;;;;;;6.40;5.80;;;39.30;31.30;;;;;;5042894;28;20427;-69
2023/07/17 12:10:37;;;;;;;7.17;6.47;;;40.50;30.70;;;;;;5034748;28;20536;-70
2023/07/17 12:13:04;;;;;;;6.07;5.47;;;41.60;29.90;;;;;;5035005;28;20171;-70
2023/07/17 12:15:29;;;;;;;6.47;5.87;;;41.30;29.20;;;;;;5037677;28;20217;-69
2023/07/17 12:17:55;;;;;;;6.33;5.73;;;40.80;29.80;;;;;;5048933;28;20491;-70
2023/07/17 12:20:22;;;;;;;6.13;5.63;;;40.30;29.40;;;;;;5054515;28;20193;-69
2023/07/17 12:22:52;;;;;;;6.60;5.90;;;40.10;29.70;;;;;;5054644;28;20638;-69
2023/07/17 12:25:17;;;;;;;5.87;5.27;;;39.70;29.60;;;;;;5045760;28;20433;-69
2023/07/17 12:27:44;;;;;;;6.73;6.20;;;39.00;29.80;;;;;;5051800;28;20435;-69
2023/07/17 12:30:10;;;;;;;6.80;5.37;;;37.70;30.50;;;;;;5054262;28;20527;-69
2023/07/17 12:32:37;;;;;;;6.20;5.70;;;36.50;31.60;;;;;;5054472;28;20412;-69
2023/07/17 12:35:04;;;;;;;6.53;5.93;;;35.40;32.70;;;;;;5047653;28;20429;-69
2023/07/17 12:37:30;;;;;;;5.97;5.43;;;35.10;33.80;;;;;;5050664;28;20451;-70
2023/07/17 12:39:56;;;;;;;6.63;6.13;;;36.50;32.60;;;;;;5054146;28;20420;-70
2023/07/17 12:42:22;;;;;;;6.23;5.70;;;38.50;31.30;;;;;;5054334;28;20438;-69